sensor_id;sensor_type;location;lat;lon;timestamp;P1;durP1;ratioP1;P2;durP2;ratioP2
21170;SDS011;10743;52.160;20.910;2023-07-13T00:01:54;226.45;;;67.68;;
21170;SDS011;10743;52.160;20.910;2023-07-13T00:04:23;231.25;;;67.55;;
21170;SDS011;10743;52.160;20.910;2023-07-13T00:06:52;231.27;;;67.70;;
21170;SDS011;10743;52.160;20.910;2023-07-13T00:09:19;226.55;;;67.88;;
21170;SDS011;10743;52.160;20.910;2023-07-13T00:11:53;227.02;;;67.03;;
21170;SDS011;10743;52.160;20.910;2023-07-13T00:14:22;226.45;;;67.53;;
21170;SDS011;10743;52.160;20.910;2023-07-13T00:17:06;229.93;;;67.53;;
21170;SDS011;10743;52.160;20.910;2023-07-13T00:19:34;230.10;;;67.57;;
21170;SDS011;10743;52.160;20.910;2023-07-13T00:22:02;226.25;;;66.38;;
21170;SDS011;10743;52.160;20.910;2023-07-13T00:24:29;227.27;;;67.28;;
21170;SDS011;10743;52.160;20.910;2023-07-13T00:26:57;229.10;;;67.00;;
21170;SDS011;10743;52.160;20.910;2023-07-13T00:29:25;227.90;;;66.82;;
21170;SDS011;10743;52.160;20.910;2023-07-13T00:31:52;231.23;;;67.32;;
21170;SDS011;10743;52.160;20.910;2023-07-13T00:34:20;228.68;;;66.88;;
21170;SDS011;10743;52.160;20.910;2023-07-13T00:36:48;227.27;;;66.75;;
21170;SDS011;10743;52.160;20.910;2023-07-13T00:39:15;230.13;;;66.97;;
21170;SDS011;10743;52.160;20.910;2023-07-13T00:41:42;227.13;;;66.88;;
21170;SDS011;10743;52.160;20.910;2023-07-13T00:44:13;229.60;;;66.75;;
21170;SDS011;10743;52.160;20.910;2023-07-13T00:46:42;225.85;;;66.65;;
21170;SDS011;10743;52.160;20.910;2023-07-13T00:49:10;227.10;;;67.22;;
21170;SDS011;10743;52.160;20.910;2023-07-13T00:54:14;226.82;;;67.47;;
21170;SDS011;10743;52.160;20.910;2023-07-13T00:56:48;224.63;;;65.63;;
21170;SDS011;10743;52.160;20.910;2023-07-13T00:59:21;226.85;;;66.68;;
21170;SDS011;10743;52.160;20.910;2023-07-13T01:01:49;228.32;;;66.93;;
21170;SDS011;10743;52.160;20.910;2023-07-13T01:04:17;223.38;;;65.90;;
21170;SDS011;10743;52.160;20.910;2023-07-13T01:06:46;228.70;;;66.78;;
21170;SDS011;10743;52.160;20.910;2023-07-13T01:09:14;226.05;;;66.55;;
21170;SDS011;10743;52.160;20.910;2023-07-13T01:11:42;224.85;;;66.75;;
21170;SDS011;10743;52.160;20.910;2023-07-13T01:14:11;228.35;;;66.93;;
21170;SDS011;10743;52.160;20.910;2023-07-13T01:16:42;224.00;;;66.57;;
21170;SDS011;10743;52.160;20.910;2023-07-13T01:22:07;224.95;;;66.15;;
21170;SDS011;10743;52.160;20.910;2023-07-13T01:24:38;227.00;;;66.35;;
21170;SDS011;10743;52.160;20.910;2023-07-13T01:27:09;224.27;;;66.30;;
21170;SDS011;10743;52.160;20.910;2023-07-13T01:29:39;225.27;;;66.20;;
21170;SDS011;10743;52.160;20.910;2023-07-13T01:32:09;227.60;;;67.18;;
21170;SDS011;10743;52.160;20.910;2023-07-13T01:34:40;227.48;;;67.13;;
21170;SDS011;10743;52.160;20.910;2023-07-13T01:37:09;227.20;;;67.07;;
21170;SDS011;10743;52.160;20.910;2023-07-13T01:39:38;225.65;;;66.22;;
21170;SDS011;10743;52.160;20.910;2023-07-13T01:42:06;232.07;;;66.97;;
21170;SDS011;10743;52.160;20.910;2023-07-13T01:44:33;225.13;;;66.25;;
21170;SDS011;10743;52.160;20.910;2023-07-13T01:47:01;224.00;;;65.60;;
21170;SDS011;10743;52.160;20.910;2023-07-13T01:49:28;224.00;;;65.82;;
21170;SDS011;10743;52.160;20.910;2023-07-13T01:51:55;223.50;;;65.90;;
21170;SDS011;10743;52.160;20.910;2023-07-13T01:54:23;228.55;;;66.65;;
21170;SDS011;10743;52.160;20.910;2023-07-13T01:56:50;226.05;;;66.15;;
21170;SDS011;10743;52.160;20.910;2023-07-13T01:59:17;222.52;;;65.22;;
21170;SDS011;10743;52.160;20.910;2023-07-13T02:01:44;236.57;;;67.00;;
21170;SDS011;10743;52.160;20.910;2023-07-13T02:04:12;224.85;;;65.30;;
21170;SDS011;10743;52.160;20.910;2023-07-13T02:06:39;223.13;;;65.70;;
21170;SDS011;10743;52.160;20.910;2023-07-13T02:09:06;223.07;;;65.78;;
21170;SDS011;10743;52.160;20.910;2023-07-13T02:11:33;224.73;;;66.13;;
21170;SDS011;10743;52.160;20.910;2023-07-13T02:14:00;227.82;;;66.57;;
21170;SDS011;10743;52.160;20.910;2023-07-13T02:16:28;227.88;;;66.93;;
21170;SDS011;10743;52.160;20.910;2023-07-13T02:18:57;224.27;;;67.32;;
21170;SDS011;10743;52.160;20.910;2023-07-13T02:21:25;224.00;;;66.65;;
21170;SDS011;10743;52.160;20.910;2023-07-13T02:23:53;224.48;;;66.82;;
21170;SDS011;10743;52.160;20.910;2023-07-13T02:26:21;224.30;;;66.22;;
21170;SDS011;10743;52.160;20.910;2023-07-13T02:28:48;226.93;;;67.00;;
21170;SDS011;10743;52.160;20.910;2023-07-13T02:31:15;226.60;;;66.38;;
21170;SDS011;10743;52.160;20.910;2023-07-13T02:33:44;229.15;;;67.10;;
21170;SDS011;10743;52.160;20.910;2023-07-13T02:36:12;227.80;;;66.78;;
21170;SDS011;10743;52.160;20.910;2023-07-13T02:38:43;224.23;;;66.30;;
21170;SDS011;10743;52.160;20.910;2023-07-13T02:41:11;227.70;;;66.68;;
21170;SDS011;10743;52.160;20.910;2023-07-13T02:43:39;226.90;;;66.78;;
21170;SDS011;10743;52.160;20.910;2023-07-13T02:46:08;228.10;;;66.47;;
21170;SDS011;10743;52.160;20.910;2023-07-13T02:48:36;227.48;;;66.75;;
21170;SDS011;10743;52.160;20.910;2023-07-13T02:51:05;225.70;;;66.00;;
21170;SDS011;10743;52.160;20.910;2023-07-13T02:53:33;224.38;;;66.15;;
21170;SDS011;10743;52.160;20.910;2023-07-13T02:56:03;224.98;;;66.38;;
21170;SDS011;10743;52.160;20.910;2023-07-13T02:58:31;226.98;;;66.53;;
21170;SDS011;10743;52.160;20.910;2023-07-13T03:00:58;227.82;;;66.47;;
21170;SDS011;10743;52.160;20.910;2023-07-13T03:03:26;226.27;;;66.18;;
21170;SDS011;10743;52.160;20.910;2023-07-13T03:05:58;222.77;;;66.10;;
21170;SDS011;10743;52.160;20.910;2023-07-13T03:08:34;225.35;;;66.50;;
21170;SDS011;10743;52.160;20.910;2023-07-13T03:11:01;223.85;;;66.10;;
21170;SDS011;10743;52.160;20.910;2023-07-13T03:13:38;224.65;;;66.53;;
21170;SDS011;10743;52.160;20.910;2023-07-13T03:16:07;224.27;;;65.53;;
21170;SDS011;10743;52.160;20.910;2023-07-13T03:18:37;224.93;;;66.88;;
21170;SDS011;10743;52.160;20.910;2023-07-13T03:21:07;231.25;;;66.10;;
21170;SDS011;10743;52.160;20.910;2023-07-13T03:23:34;228.32;;;66.45;;
21170;SDS011;10743;52.160;20.910;2023-07-13T03:26:13;225.57;;;66.28;;
21170;SDS011;10743;52.160;20.910;2023-07-13T03:28:44;226.15;;;66.55;;
21170;SDS011;10743;52.160;20.910;2023-07-13T03:31:20;223.10;;;65.95;;
21170;SDS011;10743;52.160;20.910;2023-07-13T03:33:52;226.45;;;65.97;;
21170;SDS011;10743;52.160;20.910;2023-07-13T03:36:20;222.95;;;66.20;;
21170;SDS011;10743;52.160;20.910;2023-07-13T03:38:57;224.57;;;66.88;;
21170;SDS011;10743;52.160;20.910;2023-07-13T03:41:38;224.30;;;66.18;;
21170;SDS011;10743;52.160;20.910;2023-07-13T03:44:06;224.70;;;65.97;;
21170;SDS011;10743;52.160;20.910;2023-07-13T03:46:34;225.48;;;66.30;;
21170;SDS011;10743;52.160;20.910;2023-07-13T03:49:01;226.70;;;66.63;;
21170;SDS011;10743;52.160;20.910;2023-07-13T03:51:31;226.93;;;67.88;;
21170;SDS011;10743;52.160;20.910;2023-07-13T03:53:59;228.93;;;67.63;;
21170;SDS011;10743;52.160;20.910;2023-07-13T03:56:27;228.82;;;67.97;;
21170;SDS011;10743;52.160;20.910;2023-07-13T03:58:54;225.65;;;67.85;;
21170;SDS011;10743;52.160;20.910;2023-07-13T04:01:23;230.57;;;68.05;;
21170;SDS011;10743;52.160;20.910;2023-07-13T04:03:53;225.68;;;68.07;;
21170;SDS011;10743;52.160;20.910;2023-07-13T04:06:27;227.18;;;68.05;;
21170;SDS011;10743;52.160;20.910;2023-07-13T04:08:57;229.23;;;68.45;;
21170;SDS011;10743;52.160;20.910;2023-07-13T04:11:29;229.68;;;68.93;;
21170;SDS011;10743;52.160;20.910;2023-07-13T04:13:59;231.52;;;68.35;;
21170;SDS011;10743;52.160;20.910;2023-07-13T04:16:26;228.05;;;68.85;;
21170;SDS011;10743;52.160;20.910;2023-07-13T04:19:06;228.30;;;68.60;;
21170;SDS011;10743;52.160;20.910;2023-07-13T04:21:34;227.07;;;68.43;;
21170;SDS011;10743;52.160;20.910;2023-07-13T04:24:22;236.15;;;70.00;;
21170;SDS011;10743;52.160;20.910;2023-07-13T04:26:49;230.85;;;71.43;;
21170;SDS011;10743;52.160;20.910;2023-07-13T04:29:16;231.55;;;69.25;;
21170;SDS011;10743;52.160;20.910;2023-07-13T04:31:43;234.93;;;69.85;;
21170;SDS011;10743;52.160;20.910;2023-07-13T04:34:10;236.60;;;69.93;;
21170;SDS011;10743;52.160;20.910;2023-07-13T04:36:37;245.25;;;84.32;;
21170;SDS011;10743;52.160;20.910;2023-07-13T04:39:04;245.70;;;77.35;;
21170;SDS011;10743;52.160;20.910;2023-07-13T04:41:32;232.70;;;70.78;;
21170;SDS011;10743;52.160;20.910;2023-07-13T04:43:59;235.75;;;71.22;;
21170;SDS011;10743;52.160;20.910;2023-07-13T04:46:26;233.65;;;70.07;;
21170;SDS011;10743;52.160;20.910;2023-07-13T04:48:54;236.57;;;71.22;;
21170;SDS011;10743;52.160;20.910;2023-07-13T04:51:21;231.70;;;69.97;;
21170;SDS011;10743;52.160;20.910;2023-07-13T04:53:48;233.90;;;70.28;;
21170;SDS011;10743;52.160;20.910;2023-07-13T04:56:23;243.13;;;71.45;;
21170;SDS011;10743;52.160;20.910;2023-07-13T04:58:50;236.60;;;70.18;;
21170;SDS011;10743;52.160;20.910;2023-07-13T05:01:18;233.55;;;70.22;;
21170;SDS011;10743;52.160;20.910;2023-07-13T05:03:45;270.50;;;114.63;;
21170;SDS011;10743;52.160;20.910;2023-07-13T05:06:12;234.90;;;71.25;;
21170;SDS011;10743;52.160;20.910;2023-07-13T05:08:40;330.75;;;171.55;;
21170;SDS011;10743;52.160;20.910;2023-07-13T05:11:07;232.80;;;70.65;;
21170;SDS011;10743;52.160;20.910;2023-07-13T05:13:34;235.15;;;70.57;;
21170;SDS011;10743;52.160;20.910;2023-07-13T05:16:02;236.10;;;70.43;;
21170;SDS011;10743;52.160;20.910;2023-07-13T05:18:34;230.80;;;70.68;;
21170;SDS011;10743;52.160;20.910;2023-07-13T05:21:08;236.52;;;70.68;;
21170;SDS011;10743;52.160;20.910;2023-07-13T05:23:38;232.25;;;70.22;;
21170;SDS011;10743;52.160;20.910;2023-07-13T05:26:08;236.48;;;70.72;;
21170;SDS011;10743;52.160;20.910;2023-07-13T05:28:36;241.13;;;72.15;;
21170;SDS011;10743;52.160;20.910;2023-07-13T05:31:04;237.48;;;71.43;;
21170;SDS011;10743;52.160;20.910;2023-07-13T05:33:34;243.38;;;72.80;;
21170;SDS011;10743;52.160;20.910;2023-07-13T05:36:01;239.18;;;72.80;;
21170;SDS011;10743;52.160;20.910;2023-07-13T05:38:28;237.30;;;70.97;;
21170;SDS011;10743;52.160;20.910;2023-07-13T05:40:56;242.05;;;71.30;;
21170;SDS011;10743;52.160;20.910;2023-07-13T05:43:24;232.77;;;71.28;;
21170;SDS011;10743;52.160;20.910;2023-07-13T05:45:55;238.82;;;72.15;;
21170;SDS011;10743;52.160;20.910;2023-07-13T05:48:23;234.23;;;71.10;;
21170;SDS011;10743;52.160;20.910;2023-07-13T05:50:50;240.05;;;72.28;;
21170;SDS011;10743;52.160;20.910;2023-07-13T05:53:18;236.35;;;72.30;;
21170;SDS011;10743;52.160;20.910;2023-07-13T05:55:45;235.43;;;72.47;;
21170;SDS011;10743;52.160;20.910;2023-07-13T05:58:14;236.15;;;72.97;;
21170;SDS011;10743;52.160;20.910;2023-07-13T06:00:42;239.68;;;73.70;;
21170;SDS011;10743;52.160;20.910;2023-07-13T06:03:09;351.13;;;262.77;;
21170;SDS011;10743;52.160;20.910;2023-07-13T06:05:37;235.80;;;73.63;;
21170;SDS011;10743;52.160;20.910;2023-07-13T06:08:05;234.88;;;71.78;;
21170;SDS011;10743;52.160;20.910;2023-07-13T06:10:34;230.68;;;73.03;;
21170;SDS011;10743;52.160;20.910;2023-07-13T06:13:02;229.27;;;72.95;;
21170;SDS011;10743;52.160;20.910;2023-07-13T06:15:29;232.85;;;72.95;;
21170;SDS011;10743;52.160;20.910;2023-07-13T06:17:56;233.95;;;73.22;;
21170;SDS011;10743;52.160;20.910;2023-07-13T06:20:23;227.95;;;72.95;;
21170;SDS011;10743;52.160;20.910;2023-07-13T06:22:51;223.00;;;71.82;;
21170;SDS011;10743;52.160;20.910;2023-07-13T06:25:18;226.38;;;72.18;;
21170;SDS011;10743;52.160;20.910;2023-07-13T06:27:45;220.18;;;72.25;;
21170;SDS011;10743;52.160;20.910;2023-07-13T06:30:12;218.23;;;73.43;;
21170;SDS011;10743;52.160;20.910;2023-07-13T06:32:40;218.73;;;73.55;;
21170;SDS011;10743;52.160;20.910;2023-07-13T06:35:07;214.30;;;71.90;;
21170;SDS011;10743;52.160;20.910;2023-07-13T06:37:34;215.50;;;71.13;;
21170;SDS011;10743;52.160;20.910;2023-07-13T06:40:01;209.15;;;71.68;;
21170;SDS011;10743;52.160;20.910;2023-07-13T06:42:30;211.07;;;70.68;;
21170;SDS011;10743;52.160;20.910;2023-07-13T06:44:57;214.18;;;70.82;;
21170;SDS011;10743;52.160;20.910;2023-07-13T06:47:24;207.90;;;69.70;;
21170;SDS011;10743;52.160;20.910;2023-07-13T06:49:51;209.18;;;68.72;;
21170;SDS011;10743;52.160;20.910;2023-07-13T06:52:18;209.10;;;68.50;;
21170;SDS011;10743;52.160;20.910;2023-07-13T06:54:45;206.90;;;68.95;;
21170;SDS011;10743;52.160;20.910;2023-07-13T06:57:12;205.23;;;68.75;;
21170;SDS011;10743;52.160;20.910;2023-07-13T06:59:39;212.10;;;68.75;;
21170;SDS011;10743;52.160;20.910;2023-07-13T07:02:08;200.60;;;68.97;;
21170;SDS011;10743;52.160;20.910;2023-07-13T07:04:37;205.30;;;70.28;;
21170;SDS011;10743;52.160;20.910;2023-07-13T07:07:04;198.02;;;70.25;;
21170;SDS011;10743;52.160;20.910;2023-07-13T07:09:31;197.00;;;69.75;;
21170;SDS011;10743;52.160;20.910;2023-07-13T07:11:58;195.65;;;70.25;;
21170;SDS011;10743;52.160;20.910;2023-07-13T07:14:30;193.18;;;69.00;;
21170;SDS011;10743;52.160;20.910;2023-07-13T07:16:57;201.43;;;70.25;;
21170;SDS011;10743;52.160;20.910;2023-07-13T07:19:25;194.30;;;69.40;;
21170;SDS011;10743;52.160;20.910;2023-07-13T07:21:55;192.00;;;69.30;;
21170;SDS011;10743;52.160;20.910;2023-07-13T07:24:22;190.85;;;68.40;;
21170;SDS011;10743;52.160;20.910;2023-07-13T07:26:49;189.23;;;67.90;;
21170;SDS011;10743;52.160;20.910;2023-07-13T07:29:19;188.82;;;67.97;;
21170;SDS011;10743;52.160;20.910;2023-07-13T07:31:50;183.43;;;68.43;;
21170;SDS011;10743;52.160;20.910;2023-07-13T07:34:32;173.57;;;66.68;;
21170;SDS011;10743;52.160;20.910;2023-07-13T07:36:59;175.20;;;66.50;;
21170;SDS011;10743;52.160;20.910;2023-07-13T07:39:31;174.45;;;66.65;;
21170;SDS011;10743;52.160;20.910;2023-07-13T07:41:58;165.00;;;66.28;;
21170;SDS011;10743;52.160;20.910;2023-07-13T07:44:25;168.77;;;66.68;;
21170;SDS011;10743;52.160;20.910;2023-07-13T07:46:53;167.95;;;67.75;;
21170;SDS011;10743;52.160;20.910;2023-07-13T07:49:21;168.27;;;68.18;;
21170;SDS011;10743;52.160;20.910;2023-07-13T07:51:48;291.27;;;90.55;;
21170;SDS011;10743;52.160;20.910;2023-07-13T07:54:15;167.13;;;68.10;;
21170;SDS011;10743;52.160;20.910;2023-07-13T07:57:03;153.70;;;65.10;;
21170;SDS011;10743;52.160;20.910;2023-07-13T07:59:33;160.82;;;65.93;;
21170;SDS011;10743;52.160;20.910;2023-07-13T08:02:03;149.82;;;62.88;;
21170;SDS011;10743;52.160;20.910;2023-07-13T08:04:33;138.82;;;61.95;;
21170;SDS011;10743;52.160;20.910;2023-07-13T08:07:03;149.80;;;64.65;;
21170;SDS011;10743;52.160;20.910;2023-07-13T08:09:31;153.07;;;65.07;;
21170;SDS011;10743;52.160;20.910;2023-07-13T08:11:58;146.85;;;64.22;;
21170;SDS011;10743;52.160;20.910;2023-07-13T08:14:29;140.55;;;63.90;;
21170;SDS011;10743;52.160;20.910;2023-07-13T08:17:16;129.75;;;61.05;;
21170;SDS011;10743;52.160;20.910;2023-07-13T08:19:43;132.75;;;62.00;;
21170;SDS011;10743;52.160;20.910;2023-07-13T08:22:10;134.55;;;62.78;;
21170;SDS011;10743;52.160;20.910;2023-07-13T08:24:37;131.00;;;63.17;;
21170;SDS011;10743;52.160;20.910;2023-07-13T08:27:04;124.22;;;61.85;;
21170;SDS011;10743;52.160;20.910;2023-07-13T08:29:33;130.68;;;62.97;;
21170;SDS011;10743;52.160;20.910;2023-07-13T08:32:00;117.47;;;61.33;;
21170;SDS011;10743;52.160;20.910;2023-07-13T08:34:27;111.75;;;59.25;;
21170;SDS011;10743;52.160;20.910;2023-07-13T08:36:54;119.47;;;60.47;;
21170;SDS011;10743;52.160;20.910;2023-07-13T08:39:21;106.68;;;58.58;;
21170;SDS011;10743;52.160;20.910;2023-07-13T08:41:53;108.50;;;58.35;;
21170;SDS011;10743;52.160;20.910;2023-07-13T08:44:30;100.78;;;58.08;;
21170;SDS011;10743;52.160;20.910;2023-07-13T08:47:17;92.40;;;56.72;;
21170;SDS011;10743;52.160;20.910;2023-07-13T08:49:49;75.72;;;50.70;;
21170;SDS011;10743;52.160;20.910;2023-07-13T08:52:22;76.47;;;52.40;;
21170;SDS011;10743;52.160;20.910;2023-07-13T08:55:05;81.75;;;52.97;;
21170;SDS011;10743;52.160;20.910;2023-07-13T08:57:48;80.50;;;52.80;;
21170;SDS011;10743;52.160;20.910;2023-07-13T09:00:27;78.15;;;52.50;;
21170;SDS011;10743;52.160;20.910;2023-07-13T09:03:22;83.38;;;53.95;;
21170;SDS011;10743;52.160;20.910;2023-07-13T09:05:54;73.18;;;51.28;;
21170;SDS011;10743;52.160;20.910;2023-07-13T09:11:17;54.35;;;45.35;;
21170;SDS011;10743;52.160;20.910;2023-07-13T09:17:02;56.10;;;46.08;;
21170;SDS011;10743;52.160;20.910;2023-07-13T09:20:25;53.05;;;44.92;;
21170;SDS011;10743;52.160;20.910;2023-07-13T09:23:14;49.88;;;44.25;;
21170;SDS011;10743;52.160;20.910;2023-07-13T09:25:49;58.85;;;46.65;;
21170;SDS011;10743;52.160;20.910;2023-07-13T09:28:26;50.17;;;43.78;;
21170;SDS011;10743;52.160;20.910;2023-07-13T09:31:06;50.42;;;44.17;;
21170;SDS011;10743;52.160;20.910;2023-07-13T09:33:39;54.67;;;45.40;;
21170;SDS011;10743;52.160;20.910;2023-07-13T09:36:20;54.65;;;46.35;;
21170;SDS011;10743;52.160;20.910;2023-07-13T09:47:22;50.40;;;43.55;;
21170;SDS011;10743;52.160;20.910;2023-07-13T09:50:01;52.75;;;44.75;;
21170;SDS011;10743;52.160;20.910;2023-07-13T09:52:43;38.42;;;34.42;;
21170;SDS011;10743;52.160;20.910;2023-07-13T09:58:08;36.95;;;32.55;;
21170;SDS011;10743;52.160;20.910;2023-07-13T10:03:29;30.55;;;22.40;;
21170;SDS011;10743;52.160;20.910;2023-07-13T10:06:14;22.23;;;16.83;;
21170;SDS011;10743;52.160;20.910;2023-07-13T10:08:46;25.63;;;22.90;;
21170;SDS011;10743;52.160;20.910;2023-07-13T10:11:19;30.27;;;25.90;;
21170;SDS011;10743;52.160;20.910;2023-07-13T10:13:53;25.15;;;22.65;;
21170;SDS011;10743;52.160;20.910;2023-07-13T10:16:30;37.08;;;33.35;;
21170;SDS011;10743;52.160;20.910;2023-07-13T10:19:05;46.00;;;40.10;;
21170;SDS011;10743;52.160;20.910;2023-07-13T10:21:53;51.58;;;43.08;;
21170;SDS011;10743;52.160;20.910;2023-07-13T10:24:26;57.67;;;44.50;;
21170;SDS011;10743;52.160;20.910;2023-07-13T10:29:37;81.60;;;51.33;;
21170;SDS011;10743;52.160;20.910;2023-07-13T10:32:12;94.35;;;53.53;;
21170;SDS011;10743;52.160;20.910;2023-07-13T10:34:41;85.50;;;52.17;;
21170;SDS011;10743;52.160;20.910;2023-07-13T10:37:16;85.07;;;52.22;;
21170;SDS011;10743;52.160;20.910;2023-07-13T10:39:51;88.57;;;52.80;;
21170;SDS011;10743;52.160;20.910;2023-07-13T10:42:29;219.43;;;73.13;;
21170;SDS011;10743;52.160;20.910;2023-07-13T10:45:19;85.65;;;51.85;;
21170;SDS011;10743;52.160;20.910;2023-07-13T10:47:48;78.95;;;49.42;;
21170;SDS011;10743;52.160;20.910;2023-07-13T10:50:22;80.50;;;50.42;;
21170;SDS011;10743;52.160;20.910;2023-07-13T10:52:53;88.93;;;50.30;;
21170;SDS011;10743;52.160;20.910;2023-07-13T10:58:23;100.45;;;52.85;;
21170;SDS011;10743;52.160;20.910;2023-07-13T11:01:14;109.47;;;55.58;;
21170;SDS011;10743;52.160;20.910;2023-07-13T11:03:49;111.60;;;56.28;;
21170;SDS011;10743;52.160;20.910;2023-07-13T11:06:38;120.95;;;56.50;;
21170;SDS011;10743;52.160;20.910;2023-07-13T11:11:59;140.02;;;61.75;;
21170;SDS011;10743;52.160;20.910;2023-07-13T11:14:42;148.70;;;62.28;;
21170;SDS011;10743;52.160;20.910;2023-07-13T11:22:48;172.00;;;64.63;;
21170;SDS011;10743;52.160;20.910;2023-07-13T11:25:35;166.20;;;65.05;;
21170;SDS011;10743;52.160;20.910;2023-07-13T11:28:05;172.43;;;64.85;;
21170;SDS011;10743;52.160;20.910;2023-07-13T11:33:31;185.15;;;66.28;;
21170;SDS011;10743;52.160;20.910;2023-07-13T11:36:21;182.13;;;65.57;;
21170;SDS011;10743;52.160;20.910;2023-07-13T11:41:44;189.32;;;67.50;;
21170;SDS011;10743;52.160;20.910;2023-07-13T11:44:23;196.70;;;67.10;;
21170;SDS011;10743;52.160;20.910;2023-07-13T11:46:53;195.90;;;66.88;;
21170;SDS011;10743;52.160;20.910;2023-07-13T11:49:23;205.05;;;67.20;;
21170;SDS011;10743;52.160;20.910;2023-07-13T11:51:53;199.68;;;65.80;;
21170;SDS011;10743;52.160;20.910;2023-07-13T11:54:31;206.63;;;65.70;;
21170;SDS011;10743;52.160;20.910;2023-07-13T11:59:52;204.95;;;65.65;;
21170;SDS011;10743;52.160;20.910;2023-07-13T12:02:28;199.75;;;64.88;;
21170;SDS011;10743;52.160;20.910;2023-07-13T12:05:00;201.05;;;64.15;;
21170;SDS011;10743;52.160;20.910;2023-07-13T12:07:31;208.07;;;65.13;;
21170;SDS011;10743;52.160;20.910;2023-07-13T12:10:03;211.00;;;65.25;;
21170;SDS011;10743;52.160;20.910;2023-07-13T12:18:13;219.27;;;65.55;;
21170;SDS011;10743;52.160;20.910;2023-07-13T12:20:42;209.95;;;64.30;;
21170;SDS011;10743;52.160;20.910;2023-07-13T12:25:55;223.35;;;65.00;;
21170;SDS011;10743;52.160;20.910;2023-07-13T12:28:37;215.70;;;64.28;;
21170;SDS011;10743;52.160;20.910;2023-07-13T12:31:25;215.20;;;63.78;;
21170;SDS011;10743;52.160;20.910;2023-07-13T12:34:02;221.65;;;64.18;;
21170;SDS011;10743;52.160;20.910;2023-07-13T12:36:45;218.18;;;64.20;;
21170;SDS011;10743;52.160;20.910;2023-07-13T12:41:52;217.45;;;65.30;;
21170;SDS011;10743;52.160;20.910;2023-07-13T12:44:24;222.02;;;64.53;;
21170;SDS011;10743;52.160;20.910;2023-07-13T12:47:04;224.52;;;65.22;;
21170;SDS011;10743;52.160;20.910;2023-07-13T12:49:42;224.65;;;65.45;;
21170;SDS011;10743;52.160;20.910;2023-07-13T12:52:17;224.60;;;66.00;;
21170;SDS011;10743;52.160;20.910;2023-07-13T12:54:54;224.15;;;66.05;;
21170;SDS011;10743;52.160;20.910;2023-07-13T12:57:32;222.95;;;64.93;;
21170;SDS011;10743;52.160;20.910;2023-07-13T13:00:09;223.93;;;64.47;;
21170;SDS011;10743;52.160;20.910;2023-07-13T13:02:52;221.57;;;64.88;;
21170;SDS011;10743;52.160;20.910;2023-07-13T13:05:42;220.55;;;64.55;;
21170;SDS011;10743;52.160;20.910;2023-07-13T13:08:12;224.70;;;66.93;;
21170;SDS011;10743;52.160;20.910;2023-07-13T13:10:40;221.43;;;65.82;;
21170;SDS011;10743;52.160;20.910;2023-07-13T13:13:07;224.13;;;67.10;;
21170;SDS011;10743;52.160;20.910;2023-07-13T13:15:34;225.95;;;66.13;;
21170;SDS011;10743;52.160;20.910;2023-07-13T13:18:08;223.88;;;66.32;;
21170;SDS011;10743;52.160;20.910;2023-07-13T13:20:42;220.65;;;65.18;;
21170;SDS011;10743;52.160;20.910;2023-07-13T13:23:13;220.55;;;65.25;;
21170;SDS011;10743;52.160;20.910;2023-07-13T13:25:45;222.32;;;65.38;;
21170;SDS011;10743;52.160;20.910;2023-07-13T13:28:15;221.63;;;65.13;;
21170;SDS011;10743;52.160;20.910;2023-07-13T13:30:46;219.80;;;65.05;;
21170;SDS011;10743;52.160;20.910;2023-07-13T13:33:17;221.25;;;64.90;;
21170;SDS011;10743;52.160;20.910;2023-07-13T13:35:48;221.88;;;65.13;;
21170;SDS011;10743;52.160;20.910;2023-07-13T13:38:16;217.73;;;64.10;;
21170;SDS011;10743;52.160;20.910;2023-07-13T13:40:47;221.38;;;65.15;;
21170;SDS011;10743;52.160;20.910;2023-07-13T13:45:47;227.27;;;66.10;;
21170;SDS011;10743;52.160;20.910;2023-07-13T13:48:16;224.23;;;64.78;;
21170;SDS011;10743;52.160;20.910;2023-07-13T13:50:46;306.02;;;78.90;;
21170;SDS011;10743;52.160;20.910;2023-07-13T13:53:14;229.88;;;66.20;;
21170;SDS011;10743;52.160;20.910;2023-07-13T13:55:42;221.63;;;65.88;;
21170;SDS011;10743;52.160;20.910;2023-07-13T13:58:10;221.32;;;64.97;;
21170;SDS011;10743;52.160;20.910;2023-07-13T14:00:37;219.10;;;65.63;;
21170;SDS011;10743;52.160;20.910;2023-07-13T14:03:13;221.95;;;65.93;;
21170;SDS011;10743;52.160;20.910;2023-07-13T14:05:44;224.70;;;66.78;;
21170;SDS011;10743;52.160;20.910;2023-07-13T14:08:14;229.73;;;66.88;;
21170;SDS011;10743;52.160;20.910;2023-07-13T14:10:44;227.75;;;66.65;;
21170;SDS011;10743;52.160;20.910;2023-07-13T14:13:16;225.00;;;66.75;;
21170;SDS011;10743;52.160;20.910;2023-07-13T14:15:53;220.93;;;65.93;;
21170;SDS011;10743;52.160;20.910;2023-07-13T14:18:20;226.73;;;66.68;;
21170;SDS011;10743;52.160;20.910;2023-07-13T14:20:48;215.93;;;65.60;;
21170;SDS011;10743;52.160;20.910;2023-07-13T14:23:15;224.20;;;66.28;;
21170;SDS011;10743;52.160;20.910;2023-07-13T14:25:45;220.90;;;66.18;;
21170;SDS011;10743;52.160;20.910;2023-07-13T14:28:23;217.90;;;66.45;;
21170;SDS011;10743;52.160;20.910;2023-07-13T14:30:53;218.52;;;66.18;;
21170;SDS011;10743;52.160;20.910;2023-07-13T14:33:21;213.68;;;65.72;;
21170;SDS011;10743;52.160;20.910;2023-07-13T14:35:49;217.77;;;66.32;;
21170;SDS011;10743;52.160;20.910;2023-07-13T14:38:19;211.35;;;66.10;;
21170;SDS011;10743;52.160;20.910;2023-07-13T14:40:46;220.27;;;67.32;;
21170;SDS011;10743;52.160;20.910;2023-07-13T14:43:14;220.52;;;67.03;;
21170;SDS011;10743;52.160;20.910;2023-07-13T14:45:44;214.48;;;66.53;;
21170;SDS011;10743;52.160;20.910;2023-07-13T14:48:21;216.35;;;67.00;;
21170;SDS011;10743;52.160;20.910;2023-07-13T14:50:51;173.43;;;57.50;;
21170;SDS011;10743;52.160;20.910;2023-07-13T14:53:22;231.48;;;67.22;;
21170;SDS011;10743;52.160;20.910;2023-07-13T14:55:54;223.10;;;67.13;;
21170;SDS011;10743;52.160;20.910;2023-07-13T14:58:21;226.02;;;67.32;;
21170;SDS011;10743;52.160;20.910;2023-07-13T15:00:48;226.88;;;68.13;;
21170;SDS011;10743;52.160;20.910;2023-07-13T15:03:18;219.88;;;67.93;;
21170;SDS011;10743;52.160;20.910;2023-07-13T15:05:48;204.50;;;70.93;;
21170;SDS011;10743;52.160;20.910;2023-07-13T15:08:16;228.52;;;67.45;;
21170;SDS011;10743;52.160;20.910;2023-07-13T15:10:43;226.95;;;67.35;;
21170;SDS011;10743;52.160;20.910;2023-07-13T15:13:20;230.32;;;67.93;;
21170;SDS011;10743;52.160;20.910;2023-07-13T15:15:50;233.82;;;69.50;;
21170;SDS011;10743;52.160;20.910;2023-07-13T15:18:20;227.07;;;67.78;;
21170;SDS011;10743;52.160;20.910;2023-07-13T15:20:50;231.65;;;69.00;;
21170;SDS011;10743;52.160;20.910;2023-07-13T15:23:22;227.13;;;67.75;;